sensor_id;sensor_type;location;lat;lon;timestamp;P1;durP1;ratioP1;P2;durP2;ratioP2
39264;SDS011;42646;51.910;7.724;2022-08-20T00:00:48;6.30;;;5.25;;
39264;SDS011;42646;51.910;7.724;2022-08-20T00:03:30;8.60;;;6.22;;
39264;SDS011;42646;51.910;7.724;2022-08-20T00:05:59;8.23;;;6.43;;
39264;SDS011;42646;51.910;7.724;2022-08-20T00:08:30;8.13;;;6.85;;
39264;SDS011;42646;51.910;7.724;2022-08-20T00:10:59;8.10;;;6.85;;
39264;SDS011;42646;51.910;7.724;2022-08-20T00:13:30;9.43;;;7.07;;
39264;SDS011;42646;51.910;7.724;2022-08-20T00:16:00;8.88;;;6.97;;
39264;SDS011;42646;51.910;7.724;2022-08-20T00:18:30;8.85;;;7.00;;
39264;SDS011;42646;51.910;7.724;2022-08-20T00:20:58;11.05;;;7.47;;
39264;SDS011;42646;51.910;7.724;2022-08-20T00:23:26;8.45;;;6.82;;
39264;SDS011;42646;51.910;7.724;2022-08-20T00:25:53;10.95;;;7.85;;
39264;SDS011;42646;51.910;7.724;2022-08-20T00:28:21;9.95;;;7.43;;
39264;SDS011;42646;51.910;7.724;2022-08-20T00:30:49;8.77;;;7.53;;
39264;SDS011;42646;51.910;7.724;2022-08-20T00:33:18;9.63;;;7.80;;
39264;SDS011;42646;51.910;7.724;2022-08-20T00:35:49;10.52;;;8.10;;
39264;SDS011;42646;51.910;7.724;2022-08-20T00:38:19;12.40;;;9.27;;
39264;SDS011;42646;51.910;7.724;2022-08-20T00:40:48;10.30;;;7.47;;
39264;SDS011;42646;51.910;7.724;2022-08-20T00:43:25;11.55;;;8.40;;
39264;SDS011;42646;51.910;7.724;2022-08-20T00:45:57;12.50;;;8.75;;
39264;SDS011;42646;51.910;7.724;2022-08-20T00:48:26;11.95;;;8.93;;
39264;SDS011;42646;51.910;7.724;2022-08-20T00:51:03;10.20;;;8.27;;
39264;SDS011;42646;51.910;7.724;2022-08-20T00:53:33;10.55;;;7.82;;
39264;SDS011;42646;51.910;7.724;2022-08-20T00:56:03;9.95;;;7.90;;
39264;SDS011;42646;51.910;7.724;2022-08-20T00:58:32;11.38;;;8.15;;
39264;SDS011;42646;51.910;7.724;2022-08-20T01:01:02;12.18;;;9.18;;
39264;SDS011;42646;51.910;7.724;2022-08-20T01:03:31;12.70;;;9.27;;
39264;SDS011;42646;51.910;7.724;2022-08-20T01:05:59;12.15;;;9.50;;
39264;SDS011;42646;51.910;7.724;2022-08-20T01:08:28;12.43;;;9.20;;
39264;SDS011;42646;51.910;7.724;2022-08-20T01:10:56;12.60;;;9.30;;
39264;SDS011;42646;51.910;7.724;2022-08-20T01:13:35;11.88;;;9.43;;
39264;SDS011;42646;51.910;7.724;2022-08-20T01:16:07;10.82;;;8.60;;
39264;SDS011;42646;51.910;7.724;2022-08-20T01:18:43;13.40;;;9.80;;
39264;SDS011;42646;51.910;7.724;2022-08-20T01:21:13;11.63;;;9.35;;
39264;SDS011;42646;51.910;7.724;2022-08-20T01:23:46;11.43;;;9.25;;
39264;SDS011;42646;51.910;7.724;2022-08-20T01:26:20;11.88;;;9.25;;
39264;SDS011;42646;51.910;7.724;2022-08-20T01:28:51;11.00;;;8.90;;
39264;SDS011;42646;51.910;7.724;2022-08-20T01:31:22;10.80;;;8.88;;
39264;SDS011;42646;51.910;7.724;2022-08-20T01:33:53;11.50;;;9.40;;
39264;SDS011;42646;51.910;7.724;2022-08-20T01:36:24;11.80;;;8.77;;
39264;SDS011;42646;51.910;7.724;2022-08-20T01:38:55;9.82;;;7.88;;
39264;SDS011;42646;51.910;7.724;2022-08-20T01:41:33;10.27;;;7.70;;
39264;SDS011;42646;51.910;7.724;2022-08-20T01:44:10;10.50;;;7.43;;
39264;SDS011;42646;51.910;7.724;2022-08-20T01:46:44;8.52;;;6.40;;
39264;SDS011;42646;51.910;7.724;2022-08-20T01:49:14;9.98;;;7.20;;
39264;SDS011;42646;51.910;7.724;2022-08-20T01:51:49;9.57;;;7.10;;
39264;SDS011;42646;51.910;7.724;2022-08-20T01:54:17;9.52;;;6.70;;
39264;SDS011;42646;51.910;7.724;2022-08-20T01:56:52;9.90;;;6.57;;
39264;SDS011;42646;51.910;7.724;2022-08-20T01:59:25;8.00;;;6.25;;
39264;SDS011;42646;51.910;7.724;2022-08-20T02:01:54;7.35;;;5.68;;
39264;SDS011;42646;51.910;7.724;2022-08-20T02:04:23;7.15;;;5.28;;
39264;SDS011;42646;51.910;7.724;2022-08-20T02:06:53;7.75;;;5.47;;
39264;SDS011;42646;51.910;7.724;2022-08-20T02:09:23;7.13;;;5.70;;
39264;SDS011;42646;51.910;7.724;2022-08-20T02:11:54;7.60;;;5.65;;
39264;SDS011;42646;51.910;7.724;2022-08-20T02:14:23;8.07;;;5.72;;
39264;SDS011;42646;51.910;7.724;2022-08-20T02:16:52;8.85;;;6.05;;
39264;SDS011;42646;51.910;7.724;2022-08-20T02:19:24;7.87;;;5.80;;
39264;SDS011;42646;51.910;7.724;2022-08-20T02:21:56;8.75;;;6.43;;
39264;SDS011;42646;51.910;7.724;2022-08-20T02:24:26;7.03;;;5.65;;
39264;SDS011;42646;51.910;7.724;2022-08-20T02:26:55;7.45;;;5.53;;
39264;SDS011;42646;51.910;7.724;2022-08-20T02:29:23;8.50;;;6.20;;
39264;SDS011;42646;51.910;7.724;2022-08-20T02:31:51;8.88;;;7.07;;
39264;SDS011;42646;51.910;7.724;2022-08-20T02:34:39;9.23;;;7.03;;
39264;SDS011;42646;51.910;7.724;2022-08-20T02:37:07;8.43;;;6.65;;
39264;SDS011;42646;51.910;7.724;2022-08-20T02:39:35;10.35;;;7.43;;
39264;SDS011;42646;51.910;7.724;2022-08-20T02:42:05;10.48;;;7.15;;
39264;SDS011;42646;51.910;7.724;2022-08-20T02:44:33;10.52;;;7.75;;
39264;SDS011;42646;51.910;7.724;2022-08-20T02:47:00;11.20;;;7.82;;
39264;SDS011;42646;51.910;7.724;2022-08-20T02:49:28;10.35;;;7.78;;
39264;SDS011;42646;51.910;7.724;2022-08-20T02:51:56;11.27;;;8.35;;
39264;SDS011;42646;51.910;7.724;2022-08-20T02:54:24;10.15;;;8.00;;
39264;SDS011;42646;51.910;7.724;2022-08-20T02:56:52;8.93;;;7.53;;
39264;SDS011;42646;51.910;7.724;2022-08-20T02:59:21;9.45;;;7.63;;
39264;SDS011;42646;51.910;7.724;2022-08-20T03:01:48;10.85;;;7.78;;
39264;SDS011;42646;51.910;7.724;2022-08-20T03:04:26;10.80;;;8.23;;
39264;SDS011;42646;51.910;7.724;2022-08-20T03:06:54;10.32;;;7.88;;
39264;SDS011;42646;51.910;7.724;2022-08-20T03:09:22;11.65;;;8.18;;
39264;SDS011;42646;51.910;7.724;2022-08-20T03:11:50;10.20;;;8.10;;
39264;SDS011;42646;51.910;7.724;2022-08-20T03:14:18;9.75;;;8.00;;
39264;SDS011;42646;51.910;7.724;2022-08-20T03:16:47;9.40;;;7.43;;
39264;SDS011;42646;51.910;7.724;2022-08-20T03:19:15;9.50;;;7.68;;
39264;SDS011;42646;51.910;7.724;2022-08-20T03:21:42;10.02;;;7.72;;
39264;SDS011;42646;51.910;7.724;2022-08-20T03:24:10;9.70;;;8.20;;
39264;SDS011;42646;51.910;7.724;2022-08-20T03:26:38;9.57;;;7.68;;
39264;SDS011;42646;51.910;7.724;2022-08-20T03:29:06;10.38;;;8.30;;
39264;SDS011;42646;51.910;7.724;2022-08-20T03:31:33;10.52;;;8.55;;
39264;SDS011;42646;51.910;7.724;2022-08-20T03:34:02;11.13;;;8.90;;
39264;SDS011;42646;51.910;7.724;2022-08-20T03:36:30;10.65;;;8.43;;
39264;SDS011;42646;51.910;7.724;2022-08-20T03:38:59;10.82;;;8.18;;
39264;SDS011;42646;51.910;7.724;2022-08-20T03:43:58;11.20;;;9.00;;
39264;SDS011;42646;51.910;7.724;2022-08-20T03:46:25;10.68;;;8.30;;
39264;SDS011;42646;51.910;7.724;2022-08-20T03:48:54;12.63;;;8.88;;
39264;SDS011;42646;51.910;7.724;2022-08-20T03:53:56;10.32;;;8.23;;
39264;SDS011;42646;51.910;7.724;2022-08-20T03:56:24;10.52;;;7.82;;
39264;SDS011;42646;51.910;7.724;2022-08-20T03:58:52;9.35;;;7.53;;
39264;SDS011;42646;51.910;7.724;2022-08-20T04:01:20;10.38;;;8.57;;
39264;SDS011;42646;51.910;7.724;2022-08-20T04:04:07;10.52;;;8.10;;
39264;SDS011;42646;51.910;7.724;2022-08-20T04:06:39;8.75;;;7.40;;
39264;SDS011;42646;51.910;7.724;2022-08-20T04:09:08;9.60;;;7.82;;
39264;SDS011;42646;51.910;7.724;2022-08-20T04:11:37;8.98;;;8.00;;
39264;SDS011;42646;51.910;7.724;2022-08-20T04:14:05;8.60;;;7.32;;
39264;SDS011;42646;51.910;7.724;2022-08-20T04:16:34;9.15;;;7.90;;
39264;SDS011;42646;51.910;7.724;2022-08-20T04:19:03;8.55;;;7.65;;
39264;SDS011;42646;51.910;7.724;2022-08-20T04:21:31;8.50;;;7.50;;
39264;SDS011;42646;51.910;7.724;2022-08-20T04:24:02;9.40;;;8.00;;
39264;SDS011;42646;51.910;7.724;2022-08-20T04:26:31;7.45;;;6.63;;
39264;SDS011;42646;51.910;7.724;2022-08-20T04:29:01;8.40;;;7.32;;
39264;SDS011;42646;51.910;7.724;2022-08-20T04:31:29;9.75;;;7.93;;
39264;SDS011;42646;51.910;7.724;2022-08-20T04:33:59;9.30;;;8.02;;
39264;SDS011;42646;51.910;7.724;2022-08-20T04:36:28;9.07;;;7.82;;
39264;SDS011;42646;51.910;7.724;2022-08-20T04:38:56;8.98;;;7.90;;
39264;SDS011;42646;51.910;7.724;2022-08-20T04:41:25;9.27;;;7.97;;
39264;SDS011;42646;51.910;7.724;2022-08-20T04:43:53;9.38;;;7.80;;
39264;SDS011;42646;51.910;7.724;2022-08-20T04:46:21;9.35;;;8.07;;
39264;SDS011;42646;51.910;7.724;2022-08-20T04:48:53;9.40;;;8.40;;
39264;SDS011;42646;51.910;7.724;2022-08-20T04:51:22;10.07;;;7.93;;
39264;SDS011;42646;51.910;7.724;2022-08-20T04:53:50;9.07;;;8.07;;
39264;SDS011;42646;51.910;7.724;2022-08-20T04:56:19;11.50;;;9.20;;
39264;SDS011;42646;51.910;7.724;2022-08-20T04:58:51;9.23;;;8.23;;
39264;SDS011;42646;51.910;7.724;2022-08-20T05:01:20;10.32;;;8.50;;
39264;SDS011;42646;51.910;7.724;2022-08-20T05:03:49;8.63;;;7.38;;
39264;SDS011;42646;51.910;7.724;2022-08-20T05:06:20;8.35;;;7.35;;
39264;SDS011;42646;51.910;7.724;2022-08-20T05:08:50;9.70;;;7.50;;
39264;SDS011;42646;51.910;7.724;2022-08-20T05:11:18;8.82;;;6.78;;
39264;SDS011;42646;51.910;7.724;2022-08-20T05:14:03;7.18;;;6.30;;
39264;SDS011;42646;51.910;7.724;2022-08-20T05:16:35;7.45;;;6.13;;
39264;SDS011;42646;51.910;7.724;2022-08-20T05:19:07;6.32;;;5.10;;
39264;SDS011;42646;51.910;7.724;2022-08-20T05:21:37;6.57;;;5.25;;
39264;SDS011;42646;51.910;7.724;2022-08-20T05:24:05;6.78;;;5.25;;
39264;SDS011;42646;51.910;7.724;2022-08-20T05:26:33;6.22;;;5.40;;
39264;SDS011;42646;51.910;7.724;2022-08-20T05:29:01;6.28;;;5.22;;
39264;SDS011;42646;51.910;7.724;2022-08-20T05:31:32;6.53;;;5.65;;
39264;SDS011;42646;51.910;7.724;2022-08-20T05:34:00;7.32;;;5.88;;
39264;SDS011;42646;51.910;7.724;2022-08-20T05:36:29;6.10;;;5.47;;
39264;SDS011;42646;51.910;7.724;2022-08-20T05:38:56;7.50;;;5.60;;
39264;SDS011;42646;51.910;7.724;2022-08-20T05:41:24;6.22;;;5.30;;
39264;SDS011;42646;51.910;7.724;2022-08-20T05:43:55;6.80;;;5.57;;
39264;SDS011;42646;51.910;7.724;2022-08-20T05:46:27;7.40;;;5.55;;
39264;SDS011;42646;51.910;7.724;2022-08-20T05:48:56;6.55;;;5.45;;
39264;SDS011;42646;51.910;7.724;2022-08-20T05:51:25;6.43;;;5.50;;
39264;SDS011;42646;51.910;7.724;2022-08-20T05:53:53;7.95;;;5.95;;
39264;SDS011;42646;51.910;7.724;2022-08-20T05:56:25;6.63;;;5.40;;
39264;SDS011;42646;51.910;7.724;2022-08-20T05:58:56;7.97;;;6.15;;
39264;SDS011;42646;51.910;7.724;2022-08-20T06:01:24;6.95;;;6.03;;
39264;SDS011;42646;51.910;7.724;2022-08-20T06:03:53;7.00;;;6.30;;
39264;SDS011;42646;51.910;7.724;2022-08-20T06:06:38;6.93;;;6.22;;
39264;SDS011;42646;51.910;7.724;2022-08-20T06:09:12;7.47;;;6.32;;
39264;SDS011;42646;51.910;7.724;2022-08-20T06:11:41;7.07;;;6.38;;
39264;SDS011;42646;51.910;7.724;2022-08-20T06:14:09;8.85;;;7.10;;
39264;SDS011;42646;51.910;7.724;2022-08-20T06:16:37;10.05;;;7.80;;
39264;SDS011;42646;51.910;7.724;2022-08-20T06:19:24;8.68;;;6.63;;
39264;SDS011;42646;51.910;7.724;2022-08-20T06:21:57;9.68;;;7.88;;
39264;SDS011;42646;51.910;7.724;2022-08-20T06:24:25;8.68;;;7.10;;
39264;SDS011;42646;51.910;7.724;2022-08-20T06:26:54;10.52;;;8.55;;
39264;SDS011;42646;51.910;7.724;2022-08-20T06:29:22;11.25;;;8.85;;
39264;SDS011;42646;51.910;7.724;2022-08-20T06:31:50;11.00;;;9.50;;
39264;SDS011;42646;51.910;7.724;2022-08-20T06:34:18;10.75;;;9.30;;
39264;SDS011;42646;51.910;7.724;2022-08-20T06:36:47;13.45;;;10.45;;
39264;SDS011;42646;51.910;7.724;2022-08-20T06:39:15;12.55;;;10.63;;
39264;SDS011;42646;51.910;7.724;2022-08-20T06:41:42;13.25;;;10.68;;
39264;SDS011;42646;51.910;7.724;2022-08-20T06:44:10;12.45;;;9.88;;
39264;SDS011;42646;51.910;7.724;2022-08-20T06:46:38;13.32;;;10.30;;
39264;SDS011;42646;51.910;7.724;2022-08-20T06:49:06;10.88;;;9.65;;
39264;SDS011;42646;51.910;7.724;2022-08-20T06:51:34;14.57;;;11.27;;
39264;SDS011;42646;51.910;7.724;2022-08-20T06:54:06;12.98;;;10.23;;
39264;SDS011;42646;51.910;7.724;2022-08-20T06:56:34;12.23;;;10.05;;
39264;SDS011;42646;51.910;7.724;2022-08-20T06:59:02;15.07;;;11.40;;
39264;SDS011;42646;51.910;7.724;2022-08-20T07:01:29;14.27;;;11.90;;
39264;SDS011;42646;51.910;7.724;2022-08-20T07:03:58;14.68;;;12.43;;
39264;SDS011;42646;51.910;7.724;2022-08-20T07:06:25;14.38;;;12.23;;
39264;SDS011;42646;51.910;7.724;2022-08-20T07:08:53;13.75;;;11.57;;
39264;SDS011;42646;51.910;7.724;2022-08-20T07:11:23;14.45;;;12.32;;
39264;SDS011;42646;51.910;7.724;2022-08-20T07:13:54;13.73;;;11.27;;
39264;SDS011;42646;51.910;7.724;2022-08-20T07:16:23;14.30;;;12.02;;
39264;SDS011;42646;51.910;7.724;2022-08-20T07:18:51;13.35;;;11.73;;
39264;SDS011;42646;51.910;7.724;2022-08-20T07:21:19;13.70;;;11.57;;
39264;SDS011;42646;51.910;7.724;2022-08-20T07:23:47;15.23;;;12.20;;
39264;SDS011;42646;51.910;7.724;2022-08-20T07:26:15;15.57;;;13.13;;
39264;SDS011;42646;51.910;7.724;2022-08-20T07:28:45;14.85;;;12.70;;
39264;SDS011;42646;51.910;7.724;2022-08-20T07:31:13;14.07;;;11.73;;
39264;SDS011;42646;51.910;7.724;2022-08-20T07:34:00;19.08;;;15.40;;
39264;SDS011;42646;51.910;7.724;2022-08-20T07:36:28;15.38;;;12.73;;
39264;SDS011;42646;51.910;7.724;2022-08-20T07:38:56;15.88;;;13.60;;
39264;SDS011;42646;51.910;7.724;2022-08-20T07:41:31;15.82;;;13.23;;
39264;SDS011;42646;51.910;7.724;2022-08-20T07:44:00;14.88;;;12.65;;
39264;SDS011;42646;51.910;7.724;2022-08-20T07:46:28;14.98;;;12.35;;
39264;SDS011;42646;51.910;7.724;2022-08-20T07:48:57;14.40;;;11.73;;
39264;SDS011;42646;51.910;7.724;2022-08-20T07:51:25;13.07;;;11.02;;
39264;SDS011;42646;51.910;7.724;2022-08-20T07:53:53;12.23;;;9.82;;
39264;SDS011;42646;51.910;7.724;2022-08-20T07:56:23;13.15;;;10.75;;
39264;SDS011;42646;51.910;7.724;2022-08-20T07:58:54;10.10;;;8.40;;
39264;SDS011;42646;51.910;7.724;2022-08-20T08:01:26;11.00;;;8.90;;
39264;SDS011;42646;51.910;7.724;2022-08-20T08:03:57;8.95;;;7.95;;
39264;SDS011;42646;51.910;7.724;2022-08-20T08:06:26;9.38;;;7.78;;
39264;SDS011;42646;51.910;7.724;2022-08-20T08:08:58;10.95;;;8.80;;
39264;SDS011;42646;51.910;7.724;2022-08-20T08:11:30;9.82;;;7.57;;
39264;SDS011;42646;51.910;7.724;2022-08-20T08:14:01;8.87;;;7.30;;
39264;SDS011;42646;51.910;7.724;2022-08-20T08:16:32;7.22;;;5.70;;
39264;SDS011;42646;51.910;7.724;2022-08-20T08:19:00;7.25;;;6.00;;
39264;SDS011;42646;51.910;7.724;2022-08-20T08:21:32;9.90;;;7.47;;
39264;SDS011;42646;51.910;7.724;2022-08-20T08:24:00;7.43;;;6.50;;
39264;SDS011;42646;51.910;7.724;2022-08-20T08:26:27;8.88;;;6.57;;
39264;SDS011;42646;51.910;7.724;2022-08-20T08:28:55;7.20;;;5.82;;
39264;SDS011;42646;51.910;7.724;2022-08-20T08:31:23;7.65;;;6.13;;
39264;SDS011;42646;51.910;7.724;2022-08-20T08:33:53;8.18;;;6.20;;
39264;SDS011;42646;51.910;7.724;2022-08-20T08:36:21;8.15;;;6.05;;
39264;SDS011;42646;51.910;7.724;2022-08-20T08:38:52;7.78;;;6.70;;
39264;SDS011;42646;51.910;7.724;2022-08-20T08:41:22;9.13;;;6.22;;
39264;SDS011;42646;51.910;7.724;2022-08-20T08:43:55;6.97;;;5.57;;
39264;SDS011;42646;51.910;7.724;2022-08-20T08:46:28;7.50;;;5.95;;
39264;SDS011;42646;51.910;7.724;2022-08-20T08:49:03;7.13;;;5.63;;
39264;SDS011;42646;51.910;7.724;2022-08-20T08:51:32;7.38;;;6.05;;
39264;SDS011;42646;51.910;7.724;2022-08-20T08:54:04;8.27;;;6.25;;
39264;SDS011;42646;51.910;7.724;2022-08-20T08:56:34;7.15;;;6.00;;
39264;SDS011;42646;51.910;7.724;2022-08-20T08:59:03;7.45;;;5.95;;
39264;SDS011;42646;51.910;7.724;2022-08-20T09:01:34;6.70;;;5.65;;
39264;SDS011;42646;51.910;7.724;2022-08-20T09:04:27;6.32;;;5.25;;
39264;SDS011;42646;51.910;7.724;2022-08-20T09:06:59;7.82;;;5.55;;
39264;SDS011;42646;51.910;7.724;2022-08-20T09:09:30;6.30;;;5.10;;
39264;SDS011;42646;51.910;7.724;2022-08-20T09:12:02;5.95;;;5.35;;
39264;SDS011;42646;51.910;7.724;2022-08-20T09:14:32;5.63;;;4.00;;
39264;SDS011;42646;51.910;7.724;2022-08-20T09:16:59;5.50;;;4.35;;
39264;SDS011;42646;51.910;7.724;2022-08-20T09:19:29;5.65;;;4.22;;
39264;SDS011;42646;51.910;7.724;2022-08-20T09:21:57;6.53;;;3.95;;
39264;SDS011;42646;51.910;7.724;2022-08-20T09:24:25;5.07;;;3.40;;
39264;SDS011;42646;51.910;7.724;2022-08-20T09:26:52;6.70;;;3.70;;
39264;SDS011;42646;51.910;7.724;2022-08-20T09:29:20;5.30;;;4.07;;
39264;SDS011;42646;51.910;7.724;2022-08-20T09:31:48;5.88;;;3.58;;
39264;SDS011;42646;51.910;7.724;2022-08-20T09:34:17;5.38;;;3.63;;
39264;SDS011;42646;51.910;7.724;2022-08-20T09:36:46;7.55;;;3.70;;
39264;SDS011;42646;51.910;7.724;2022-08-20T09:39:14;4.97;;;3.35;;
39264;SDS011;42646;51.910;7.724;2022-08-20T09:41:41;4.90;;;3.40;;
39264;SDS011;42646;51.910;7.724;2022-08-20T09:44:09;4.70;;;3.30;;
39264;SDS011;42646;51.910;7.724;2022-08-20T09:46:37;5.65;;;3.35;;
39264;SDS011;42646;51.910;7.724;2022-08-20T09:49:04;5.68;;;3.20;;
39264;SDS011;42646;51.910;7.724;2022-08-20T09:51:35;4.33;;;3.40;;
39264;SDS011;42646;51.910;7.724;2022-08-20T09:54:05;6.35;;;5.25;;
39264;SDS011;42646;51.910;7.724;2022-08-20T09:56:33;7.00;;;5.95;;
39264;SDS011;42646;51.910;7.724;2022-08-20T09:59:01;6.07;;;4.95;;
39264;SDS011;42646;51.910;7.724;2022-08-20T10:01:29;6.90;;;4.57;;
39264;SDS011;42646;51.910;7.724;2022-08-20T10:03:58;5.72;;;4.38;;
39264;SDS011;42646;51.910;7.724;2022-08-20T10:06:26;7.90;;;4.10;;
39264;SDS011;42646;51.910;7.724;2022-08-20T10:08:53;5.18;;;3.80;;
39264;SDS011;42646;51.910;7.724;2022-08-20T10:11:22;5.97;;;4.53;;
39264;SDS011;42646;51.910;7.724;2022-08-20T10:13:50;5.47;;;3.40;;
39264;SDS011;42646;51.910;7.724;2022-08-20T10:16:18;4.65;;;3.65;;
39264;SDS011;42646;51.910;7.724;2022-08-20T10:18:45;4.95;;;3.83;;
39264;SDS011;42646;51.910;7.724;2022-08-20T10:21:14;5.68;;;2.90;;
39264;SDS011;42646;51.910;7.724;2022-08-20T10:23:42;5.22;;;3.35;;
39264;SDS011;42646;51.910;7.724;2022-08-20T10:26:10;5.78;;;3.50;;
39264;SDS011;42646;51.910;7.724;2022-08-20T10:28:41;5.38;;;4.22;;
39264;SDS011;42646;51.910;7.724;2022-08-20T10:31:09;6.78;;;4.68;;
39264;SDS011;42646;51.910;7.724;2022-08-20T10:33:38;7.53;;;4.72;;
39264;SDS011;42646;51.910;7.724;2022-08-20T10:36:07;5.22;;;4.00;;
39264;SDS011;42646;51.910;7.724;2022-08-20T10:38:36;5.25;;;4.10;;
39264;SDS011;42646;51.910;7.724;2022-08-20T10:41:04;6.43;;;4.07;;
39264;SDS011;42646;51.910;7.724;2022-08-20T10:43:32;4.90;;;3.75;;
39264;SDS011;42646;51.910;7.724;2022-08-20T10:46:01;6.82;;;4.03;;
39264;SDS011;42646;51.910;7.724;2022-08-20T10:48:29;5.20;;;3.40;;
39264;SDS011;42646;51.910;7.724;2022-08-20T10:50:57;4.93;;;3.20;;
39264;SDS011;42646;51.910;7.724;2022-08-20T10:53:25;4.90;;;3.20;;
39264;SDS011;42646;51.910;7.724;2022-08-20T10:55:53;4.88;;;3.33;;
39264;SDS011;42646;51.910;7.724;2022-08-20T10:58:21;4.55;;;3.17;;
39264;SDS011;42646;51.910;7.724;2022-08-20T11:00:49;5.10;;;3.03;;
39264;SDS011;42646;51.910;7.724;2022-08-20T11:03:19;5.07;;;3.20;;
39264;SDS011;42646;51.910;7.724;2022-08-20T11:05:46;4.22;;;2.78;;
39264;SDS011;42646;51.910;7.724;2022-08-20T11:08:15;4.25;;;2.53;;
39264;SDS011;42646;51.910;7.724;2022-08-20T11:10:59;3.47;;;2.40;;
39264;SDS011;42646;51.910;7.724;2022-08-20T11:13:27;5.25;;;2.65;;
39264;SDS011;42646;51.910;7.724;2022-08-20T11:15:55;8.13;;;4.00;;
39264;SDS011;42646;51.910;7.724;2022-08-20T11:18:24;5.18;;;3.50;;
39264;SDS011;42646;51.910;7.724;2022-08-20T11:20:51;6.50;;;3.40;;
39264;SDS011;42646;51.910;7.724;2022-08-20T11:23:19;6.80;;;3.10;;
39264;SDS011;42646;51.910;7.724;2022-08-20T11:25:47;4.95;;;3.20;;
39264;SDS011;42646;51.910;7.724;2022-08-20T11:28:15;4.80;;;3.25;;
39264;SDS011;42646;51.910;7.724;2022-08-20T11:30:56;5.60;;;3.35;;
39264;SDS011;42646;51.910;7.724;2022-08-20T11:33:26;7.30;;;2.75;;
39264;SDS011;42646;51.910;7.724;2022-08-20T11:35:53;4.22;;;2.80;;
39264;SDS011;42646;51.910;7.724;2022-08-20T11:38:21;4.20;;;2.90;;
39264;SDS011;42646;51.910;7.724;2022-08-20T11:40:49;4.75;;;2.70;;
39264;SDS011;42646;51.910;7.724;2022-08-20T11:43:16;7.65;;;3.25;;
39264;SDS011;42646;51.910;7.724;2022-08-20T11:45:44;5.45;;;2.90;;
39264;SDS011;42646;51.910;7.724;2022-08-20T11:48:14;5.40;;;2.80;;
39264;SDS011;42646;51.910;7.724;2022-08-20T11:50:43;5.30;;;2.75;;
39264;SDS011;42646;51.910;7.724;2022-08-20T11:53:11;6.00;;;3.58;;
39264;SDS011;42646;51.910;7.724;2022-08-20T11:55:40;6.20;;;3.10;;
39264;SDS011;42646;51.910;7.724;2022-08-20T11:58:08;4.50;;;2.80;;
39264;SDS011;42646;51.910;7.724;2022-08-20T12:00:36;4.75;;;2.80;;
39264;SDS011;42646;51.910;7.724;2022-08-20T12:03:04;4.53;;;2.67;;
39264;SDS011;42646;51.910;7.724;2022-08-20T12:05:37;7.40;;;2.53;;
39264;SDS011;42646;51.910;7.724;2022-08-20T12:08:07;4.55;;;2.40;;
39264;SDS011;42646;51.910;7.724;2022-08-20T12:10:52;5.85;;;2.60;;
39264;SDS011;42646;51.910;7.724;2022-08-20T12:13:19;3.35;;;2.40;;
39264;SDS011;42646;51.910;7.724;2022-08-20T12:16:07;4.65;;;2.50;;
39264;SDS011;42646;51.910;7.724;2022-08-20T12:18:35;8.93;;;2.70;;
39264;SDS011;42646;51.910;7.724;2022-08-20T12:21:02;5.35;;;2.80;;
39264;SDS011;42646;51.910;7.724;2022-08-20T12:23:31;5.50;;;2.67;;
39264;SDS011;42646;51.910;7.724;2022-08-20T12:25:59;7.18;;;3.47;;
39264;SDS011;42646;51.910;7.724;2022-08-20T12:28:28;5.40;;;2.70;;
39264;SDS011;42646;51.910;7.724;2022-08-20T12:30:56;5.07;;;2.83;;
39264;SDS011;42646;51.910;7.724;2022-08-20T12:33:24;5.90;;;2.55;;
39264;SDS011;42646;51.910;7.724;2022-08-20T12:35:52;5.13;;;2.60;;
39264;SDS011;42646;51.910;7.724;2022-08-20T12:38:20;7.35;;;3.00;;
39264;SDS011;42646;51.910;7.724;2022-08-20T12:40:49;6.15;;;2.50;;
39264;SDS011;42646;51.910;7.724;2022-08-20T12:43:16;5.47;;;2.50;;
39264;SDS011;42646;51.910;7.724;2022-08-20T12:45:50;6.90;;;2.60;;
39264;SDS011;42646;51.910;7.724;2022-08-20T12:48:17;6.30;;;2.80;;
39264;SDS011;42646;51.910;7.724;2022-08-20T12:50:46;6.72;;;2.90;;
39264;SDS011;42646;51.910;7.724;2022-08-20T12:53:15;5.93;;;2.63;;
39264;SDS011;42646;51.910;7.724;2022-08-20T12:55:42;6.85;;;2.88;;
39264;SDS011;42646;51.910;7.724;2022-08-20T12:58:11;6.38;;;2.70;;
39264;SDS011;42646;51.910;7.724;2022-08-20T13:00:40;5.30;;;2.70;;
39264;SDS011;42646;51.910;7.724;2022-08-20T13:03:16;6.03;;;2.70;;
39264;SDS011;42646;51.910;7.724;2022-08-20T13:05:44;5.20;;;2.30;;
39264;SDS011;42646;51.910;7.724;2022-08-20T13:08:12;4.68;;;2.50;;
39264;SDS011;42646;51.910;7.724;2022-08-20T13:10:41;4.18;;;2.28;;
39264;SDS011;42646;51.910;7.724;2022-08-20T13:13:13;4.78;;;2.50;;
39264;SDS011;42646;51.910;7.724;2022-08-20T13:15:47;6.28;;;2.40;;
39264;SDS011;42646;51.910;7.724;2022-08-20T13:18:16;4.13;;;2.40;;
39264;SDS011;42646;51.910;7.724;2022-08-20T13:20:44;6.85;;;2.55;;
39264;SDS011;42646;51.910;7.724;2022-08-20T13:23:11;7.20;;;2.45;;
39264;SDS011;42646;51.910;7.724;2022-08-20T13:25:39;4.22;;;2.38;;
39264;SDS011;42646;51.910;7.724;2022-08-20T13:28:07;5.88;;;2.97;;
39264;SDS011;42646;51.910;7.724;2022-08-20T13:30:36;7.15;;;2.58;;
39264;SDS011;42646;51.910;7.724;2022-08-20T13:33:06;7.27;;;3.00;;
39264;SDS011;42646;51.910;7.724;2022-08-20T13:35:33;7.78;;;2.70;;
39264;SDS011;42646;51.910;7.724;2022-08-20T13:38:01;5.85;;;2.65;;
39264;SDS011;42646;51.910;7.724;2022-08-20T13:40:28;5.25;;;2.45;;
39264;SDS011;42646;51.910;7.724;2022-08-20T13:42:56;5.70;;;2.58;;
39264;SDS011;42646;51.910;7.724;2022-08-20T13:45:31;5.72;;;2.40;;
39264;SDS011;42646;51.910;7.724;2022-08-20T13:48:00;6.90;;;2.42;;
39264;SDS011;42646;51.910;7.724;2022-08-20T13:50:29;3.53;;;2.10;;
39264;SDS011;42646;51.910;7.724;2022-08-20T13:52:57;4.65;;;2.15;;
39264;SDS011;42646;51.910;7.724;2022-08-20T13:55:25;5.60;;;2.22;;
39264;SDS011;42646;51.910;7.724;2022-08-20T13:57:56;4.73;;;2.10;;
39264;SDS011;42646;51.910;7.724;2022-08-20T14:00:24;5.20;;;2.15;;
39264;SDS011;42646;51.910;7.724;2022-08-20T14:02:57;6.07;;;2.20;;
39264;SDS011;42646;51.910;7.724;2022-08-20T14:05:26;4.95;;;2.17;;
39264;SDS011;42646;51.910;7.724;2022-08-20T14:07:54;5.40;;;2.10;;
39264;SDS011;42646;51.910;7.724;2022-08-20T14:10:23;4.45;;;2.13;;
39264;SDS011;42646;51.910;7.724;2022-08-20T14:12:56;5.78;;;2.17;;
39264;SDS011;42646;51.910;7.724;2022-08-20T14:15:24;5.50;;;2.40;;
39264;SDS011;42646;51.910;7.724;2022-08-20T14:17:53;6.68;;;2.78;;
39264;SDS011;42646;51.910;7.724;2022-08-20T14:20:23;6.47;;;2.10;;
39264;SDS011;42646;51.910;7.724;2022-08-20T14:22:59;5.15;;;1.90;;
39264;SDS011;42646;51.910;7.724;2022-08-20T14:25:27;4.80;;;1.90;;
39264;SDS011;42646;51.910;7.724;2022-08-20T14:27:56;6.57;;;2.30;;
39264;SDS011;42646;51.910;7.724;2022-08-20T14:30:26;6.35;;;2.30;;
39264;SDS011;42646;51.910;7.724;2022-08-20T14:32:55;5.33;;;2.07;;
39264;SDS011;42646;51.910;7.724;2022-08-20T14:35:23;7.35;;;2.35;;
39264;SDS011;42646;51.910;7.724;2022-08-20T14:37:51;6.28;;;2.05;;
39264;SDS011;42646;51.910;7.724;2022-08-20T14:40:22;6.20;;;2.22;;
39264;SDS011;42646;51.910;7.724;2022-08-20T14:42:52;5.72;;;1.92;;
39264;SDS011;42646;51.910;7.724;2022-08-20T14:45:20;8.35;;;2.30;;
39264;SDS011;42646;51.910;7.724;2022-08-20T14:47:49;6.10;;;2.10;;
39264;SDS011;42646;51.910;7.724;2022-08-20T14:50:20;6.33;;;1.90;;
39264;SDS011;42646;51.910;7.724;2022-08-20T14:52:50;5.38;;;2.10;;
39264;SDS011;42646;51.910;7.724;2022-08-20T14:55:19;6.60;;;2.25;;
39264;SDS011;42646;51.910;7.724;2022-08-20T15:00:19;5.45;;;2.28;;
39264;SDS011;42646;51.910;7.724;2022-08-20T15:02:52;6.72;;;2.65;;
39264;SDS011;42646;51.910;7.724;2022-08-20T15:05:20;4.78;;;1.92;;